EWL1914 LOWW-EDDK
Flight info
| Callsign | EWL1914 |
|---|---|
| Flight time | 1h 14m |
| Altitude | 38000 |
| Route | BUWUT DCT DITIS DCT RAPET T843 VELIS/N0480F320 DCT MASEK T841 ERNEP ERNEP1B |
| Aircraft | L101/H-SDFGHIRWXY/S |
Departure
| Time | 2026-05-06 18:37 |
|---|---|
| Airport | Vienna International Airport (LOWW) |
Arrival
| Time | 2026-05-06 19:52 |
|---|---|
| Airport | Cologne Bonn Airport (EDDK) |
| Time | Latitude | Longitude | Altitude | Speed | Heading |
|---|---|---|---|---|---|
| 2026-05-06 17:47 | 48.11807 | 16.56501 | 613 ft | 0 kts | 26° |
| 2026-05-06 18:21 | 48.11803 | 16.56499 | 630 ft | 3 kts | 27° |
| 2026-05-06 18:21 | 48.11780 | 16.56480 | 630 ft | 4 kts | 33° |
| 2026-05-06 18:21 | 48.11759 | 16.56455 | 622 ft | 4 kts | 46° |
| 2026-05-06 18:21 | 48.11745 | 16.56424 | 630 ft | 4 kts | 85° |
| 2026-05-06 18:22 | 48.11745 | 16.56408 | 630 ft | 0 kts | 116° |
| 2026-05-06 18:27 | 48.11737 | 16.56432 | 627 ft | 5 kts | 116° |
| 2026-05-06 18:27 | 48.11716 | 16.56497 | 627 ft | 9 kts | 116° |
| 2026-05-06 18:27 | 48.11682 | 16.56598 | 623 ft | 12 kts | 116° |
| 2026-05-06 18:27 | 48.11641 | 16.56727 | 623 ft | 13 kts | 114° |
| 2026-05-06 18:28 | 48.11599 | 16.56857 | 630 ft | 15 kts | 117° |
| 2026-05-06 18:28 | 48.11550 | 16.57004 | 626 ft | 17 kts | 114° |
| 2026-05-06 18:28 | 48.11503 | 16.57154 | 622 ft | 15 kts | 115° |
| 2026-05-06 18:28 | 48.11468 | 16.57262 | 626 ft | 9 kts | 116° |
| 2026-05-06 18:29 | 48.11442 | 16.57341 | 630 ft | 9 kts | 115° |
| 2026-05-06 18:29 | 48.11454 | 16.57425 | 621 ft | 10 kts | 43° |
| 2026-05-06 18:29 | 48.11528 | 16.57455 | 627 ft | 13 kts | 355° |
| 2026-05-06 18:29 | 48.11623 | 16.57422 | 620 ft | 16 kts | 346° |
| 2026-05-06 18:30 | 48.11736 | 16.57376 | 622 ft | 18 kts | 345° |
| 2026-05-06 18:30 | 48.11849 | 16.57329 | 628 ft | 15 kts | 344° |
| 2026-05-06 18:30 | 48.11939 | 16.57291 | 622 ft | 10 kts | 347° |
| 2026-05-06 18:30 | 48.11990 | 16.57348 | 621 ft | 10 kts | 64° |
| 2026-05-06 18:31 | 48.12002 | 16.57389 | 620 ft | 0 kts | 69° |
| 2026-05-06 18:31 | 48.12003 | 16.57395 | 621 ft | 2 kts | 69° |
| 2026-05-06 18:31 | 48.12011 | 16.57446 | 620 ft | 7 kts | 86° |
| 2026-05-06 18:31 | 48.12008 | 16.57517 | 625 ft | 2 kts | 100° |
| 2026-05-06 18:32 | 48.12006 | 16.57529 | 626 ft | 0 kts | 101° |
| 2026-05-06 18:32 | 48.12003 | 16.57546 | 626 ft | 2 kts | 103° |
| 2026-05-06 18:32 | 48.12002 | 16.57552 | 624 ft | 0 kts | 103° |
| 2026-05-06 18:33 | 48.12000 | 16.57566 | 621 ft | 4 kts | 104° |
| 2026-05-06 18:33 | 48.11987 | 16.57629 | 628 ft | 9 kts | 108° |
| 2026-05-06 18:34 | 48.11968 | 16.57737 | 622 ft | 12 kts | 107° |
| 2026-05-06 18:34 | 48.11946 | 16.57823 | 628 ft | 8 kts | 132° |
| 2026-05-06 18:34 | 48.11932 | 16.57834 | 623 ft | 0 kts | 160° |
| 2026-05-06 18:36 | 48.11931 | 16.57834 | 623 ft | 0 kts | 161° |
| 2026-05-06 18:36 | 48.11898 | 16.57850 | 618 ft | 20 kts | 163° |
| 2026-05-06 18:37 | 48.11553 | 16.57994 | 627 ft | 88 kts | 164° |
| 2026-05-06 18:37 | 48.10727 | 16.58335 | 655 ft | 157 kts | 165° |
| 2026-05-06 18:37 | 48.09600 | 16.58815 | 1333 ft | 178 kts | 166° |
| 2026-05-06 18:37 | 48.08410 | 16.59418 | 2303 ft | 184 kts | 161° |
| 2026-05-06 18:38 | 48.07426 | 16.60840 | 2936 ft | 210 kts | 132° |
| 2026-05-06 18:38 | 48.06837 | 16.62897 | 3446 ft | 221 kts | 115° |
| 2026-05-06 18:38 | 48.06774 | 16.65264 | 4029 ft | 241 kts | 84° |
| 2026-05-06 18:38 | 48.07543 | 16.67553 | 4697 ft | 253 kts | 57° |
| 2026-05-06 18:39 | 48.08666 | 16.69604 | 5449 ft | 256 kts | 51° |
| 2026-05-06 18:39 | 48.09838 | 16.71619 | 6115 ft | 260 kts | 50° |
| 2026-05-06 18:39 | 48.11109 | 16.73670 | 6726 ft | 279 kts | 46° |
| 2026-05-06 18:40 | 48.14536 | 16.77120 | 7674 ft | 306 kts | 9° |
| 2026-05-06 18:40 | 48.16630 | 16.77239 | 8196 ft | 300 kts | 351° |
| 2026-05-06 18:40 | 48.18700 | 16.76950 | 8752 ft | 305 kts | 352° |
| 2026-05-06 18:40 | 48.20845 | 16.76773 | 9303 ft | 308 kts | 354° |
| 2026-05-06 18:41 | 48.22979 | 16.76637 | 9830 ft | 309 kts | 353° |
| 2026-05-06 18:41 | 48.25128 | 16.76376 | 10331 ft | 310 kts | 350° |
| 2026-05-06 18:41 | 48.27276 | 16.75957 | 10829 ft | 316 kts | 348° |
| 2026-05-06 18:41 | 48.29561 | 16.75399 | 11359 ft | 349 kts | 347° |
| 2026-05-06 18:42 | 48.32002 | 16.74703 | 11787 ft | 361 kts | 343° |
| 2026-05-06 18:42 | 48.34392 | 16.73508 | 12211 ft | 365 kts | 333° |
| 2026-05-06 18:42 | 48.36719 | 16.71848 | 12712 ft | 374 kts | 329° |
| 2026-05-06 18:42 | 48.39061 | 16.70072 | 13229 ft | 380 kts | 329° |
| 2026-05-06 18:43 | 48.41333 | 16.68055 | 13706 ft | 379 kts | 317° |
| 2026-05-06 18:43 | 48.43069 | 16.65167 | 14121 ft | 368 kts | 296° |
| 2026-05-06 18:43 | 48.44164 | 16.61775 | 14635 ft | 366 kts | 289° |
| 2026-05-06 18:43 | 48.45233 | 16.58267 | 15160 ft | 371 kts | 292° |
| 2026-05-06 18:44 | 48.46429 | 16.54813 | 15658 ft | 373 kts | 294° |
| 2026-05-06 18:44 | 48.47623 | 16.51342 | 16157 ft | 373 kts | 291° |
| 2026-05-06 18:44 | 48.48704 | 16.47784 | 16666 ft | 373 kts | 288° |
| 2026-05-06 18:44 | 48.49672 | 16.44158 | 17172 ft | 374 kts | 287° |
| 2026-05-06 18:45 | 48.50594 | 16.40493 | 17716 ft | 375 kts | 286° |
| 2026-05-06 18:45 | 48.51513 | 16.36801 | 18204 ft | 376 kts | 286° |
| 2026-05-06 18:45 | 48.52441 | 16.33102 | 18683 ft | 378 kts | 286° |
| 2026-05-06 18:45 | 48.53373 | 16.29380 | 19147 ft | 381 kts | 286° |
| 2026-05-06 18:46 | 48.54305 | 16.25626 | 19627 ft | 383 kts | 286° |
| 2026-05-06 18:46 | 48.55237 | 16.21841 | 20149 ft | 386 kts | 285° |
| 2026-05-06 18:46 | 48.56171 | 16.18030 | 20650 ft | 389 kts | 285° |
| 2026-05-06 18:46 | 48.57116 | 16.14249 | 21162 ft | 393 kts | 287° |
| 2026-05-06 18:47 | 48.58165 | 16.10418 | 21666 ft | 397 kts | 288° |
| 2026-05-06 18:47 | 48.59268 | 16.06583 | 22198 ft | 400 kts | 288° |
| 2026-05-06 18:47 | 48.60377 | 16.02717 | 22734 ft | 403 kts | 288° |
| 2026-05-06 18:47 | 48.61480 | 15.98817 | 23271 ft | 406 kts | 288° |
| 2026-05-06 18:48 | 48.62591 | 15.94881 | 23739 ft | 409 kts | 288° |
| 2026-05-06 18:48 | 48.63716 | 15.90920 | 24204 ft | 411 kts | 288° |
| 2026-05-06 18:48 | 48.64851 | 15.86942 | 24695 ft | 413 kts | 288° |
| 2026-05-06 18:48 | 48.65991 | 15.82948 | 25202 ft | 415 kts | 288° |
| 2026-05-06 18:49 | 48.67135 | 15.78937 | 25693 ft | 417 kts | 288° |
| 2026-05-06 18:49 | 48.68269 | 15.74953 | 26189 ft | 419 kts | 288° |
| 2026-05-06 18:49 | 48.69422 | 15.70892 | 26699 ft | 421 kts | 288° |
| 2026-05-06 18:49 | 48.70578 | 15.66815 | 27217 ft | 423 kts | 287° |
| 2026-05-06 18:50 | 48.71741 | 15.62707 | 27741 ft | 425 kts | 287° |
| 2026-05-06 18:50 | 48.72904 | 15.58579 | 28294 ft | 428 kts | 287° |
| 2026-05-06 18:50 | 48.74064 | 15.54420 | 28831 ft | 430 kts | 287° |
| 2026-05-06 18:50 | 48.75226 | 15.50224 | 29406 ft | 433 kts | 287° |
| 2026-05-06 18:51 | 48.76393 | 15.46017 | 29946 ft | 435 kts | 287° |
| 2026-05-06 18:51 | 48.77561 | 15.41830 | 30461 ft | 438 kts | 287° |
| 2026-05-06 18:51 | 48.78754 | 15.37568 | 30955 ft | 440 kts | 286° |
| 2026-05-06 18:51 | 48.80034 | 15.33322 | 31457 ft | 447 kts | 291° |
| 2026-05-06 18:52 | 48.81672 | 15.29251 | 31975 ft | 455 kts | 297° |
| 2026-05-06 18:52 | 48.83524 | 15.25312 | 32512 ft | 461 kts | 298° |
| 2026-05-06 18:52 | 48.85401 | 15.21349 | 33048 ft | 464 kts | 298° |
| 2026-05-06 18:52 | 48.87256 | 15.17322 | 33598 ft | 465 kts | 297° |
| 2026-05-06 18:53 | 48.89073 | 15.13312 | 34186 ft | 457 kts | 296° |
| 2026-05-06 18:53 | 48.90865 | 15.09314 | 34811 ft | 461 kts | 298° |
| 2026-05-06 18:53 | 48.92771 | 15.05339 | 35457 ft | 469 kts | 300° |
| 2026-05-06 18:53 | 48.94729 | 15.01422 | 36086 ft | 474 kts | 301° |
| 2026-05-06 18:54 | 48.96730 | 14.97424 | 36746 ft | 474 kts | 301° |
| 2026-05-06 18:54 | 48.98708 | 14.93417 | 37407 ft | 475 kts | 301° |
| 2026-05-06 18:54 | 49.00687 | 14.89362 | 37660 ft | 477 kts | 301° |
| 2026-05-06 18:55 | 49.04627 | 14.81268 | 37697 ft | 474 kts | 301° |
| 2026-05-06 18:55 | 49.08482 | 14.73335 | 37700 ft | 473 kts | 301° |
| 2026-05-06 18:56 | 49.12359 | 14.65322 | 37700 ft | 472 kts | 301° |
| 2026-05-06 18:56 | 49.16180 | 14.57401 | 37707 ft | 472 kts | 301° |
| 2026-05-06 18:57 | 49.20021 | 14.49413 | 37705 ft | 472 kts | 301° |
| 2026-05-06 18:57 | 49.23907 | 14.41312 | 37705 ft | 472 kts | 300° |
| 2026-05-06 18:58 | 49.27713 | 14.33351 | 37741 ft | 472 kts | 301° |
| 2026-05-06 18:58 | 49.31524 | 14.25348 | 37729 ft | 477 kts | 301° |
| 2026-05-06 18:59 | 49.35347 | 14.17307 | 37731 ft | 478 kts | 301° |
| 2026-05-06 18:59 | 49.39192 | 14.09200 | 37727 ft | 478 kts | 300° |
| 2026-05-06 19:00 | 49.43092 | 14.00944 | 37733 ft | 478 kts | 300° |
| 2026-05-06 19:00 | 49.46893 | 13.92870 | 37729 ft | 479 kts | 301° |
| 2026-05-06 19:01 | 49.50521 | 13.85145 | 37745 ft | 481 kts | 301° |
| 2026-05-06 19:01 | 49.54439 | 13.76783 | 37744 ft | 481 kts | 301° |
| 2026-05-06 19:02 | 49.58340 | 13.68427 | 37743 ft | 481 kts | 301° |
| 2026-05-06 19:02 | 49.62102 | 13.60342 | 37758 ft | 481 kts | 301° |
| 2026-05-06 19:03 | 49.65927 | 13.52094 | 37752 ft | 483 kts | 301° |
| 2026-05-06 19:03 | 49.69721 | 13.43891 | 37749 ft | 484 kts | 301° |
| 2026-05-06 19:04 | 49.73468 | 13.35770 | 37744 ft | 485 kts | 301° |
| 2026-05-06 19:04 | 49.77308 | 13.27416 | 37749 ft | 484 kts | 300° |
| 2026-05-06 19:05 | 49.81261 | 13.18786 | 37751 ft | 484 kts | 300° |
| 2026-05-06 19:05 | 49.84946 | 13.10719 | 37758 ft | 484 kts | 300° |
| 2026-05-06 19:06 | 49.88774 | 13.02144 | 37752 ft | 481 kts | 295° |
| 2026-05-06 19:06 | 49.91280 | 12.92978 | 37787 ft | 472 kts | 284° |
| 2026-05-06 19:07 | 49.93486 | 12.83726 | 37779 ft | 475 kts | 286° |
| 2026-05-06 19:07 | 49.95778 | 12.74500 | 37789 ft | 476 kts | 286° |
| 2026-05-06 19:08 | 49.98106 | 12.65013 | 37787 ft | 477 kts | 286° |
| 2026-05-06 19:08 | 50.00438 | 12.55475 | 37786 ft | 477 kts | 286° |
| 2026-05-06 19:09 | 50.02777 | 12.45865 | 37788 ft | 477 kts | 285° |
| 2026-05-06 19:09 | 50.05074 | 12.36386 | 37776 ft | 477 kts | 286° |
| 2026-05-06 19:10 | 50.07395 | 12.26767 | 37797 ft | 478 kts | 286° |
| 2026-05-06 19:10 | 50.09710 | 12.17125 | 37800 ft | 478 kts | 285° |
| 2026-05-06 19:11 | 50.12030 | 12.07424 | 37808 ft | 478 kts | 285° |
| 2026-05-06 19:11 | 50.14344 | 11.97702 | 37828 ft | 478 kts | 285° |
| 2026-05-06 19:12 | 50.16644 | 11.87993 | 37805 ft | 477 kts | 286° |
| 2026-05-06 19:12 | 50.18924 | 11.78329 | 37802 ft | 476 kts | 285° |
| 2026-05-06 19:13 | 50.21213 | 11.68579 | 37802 ft | 476 kts | 285° |
| 2026-05-06 19:13 | 50.23468 | 11.58922 | 37799 ft | 476 kts | 285° |
| 2026-05-06 19:14 | 50.25728 | 11.49196 | 37806 ft | 477 kts | 286° |
| 2026-05-06 19:14 | 50.27986 | 11.39448 | 37802 ft | 477 kts | 286° |
| 2026-05-06 19:15 | 50.30232 | 11.29697 | 37735 ft | 478 kts | 285° |
| 2026-05-06 19:15 | 50.31357 | 11.24793 | 37295 ft | 479 kts | 285° |
| 2026-05-06 19:15 | 50.32476 | 11.19908 | 36799 ft | 476 kts | 285° |
| 2026-05-06 19:15 | 50.33587 | 11.15057 | 36336 ft | 469 kts | 285° |
| 2026-05-06 19:16 | 50.34677 | 11.10286 | 35900 ft | 463 kts | 285° |
| 2026-05-06 19:16 | 50.35735 | 11.05641 | 35470 ft | 457 kts | 284° |
| 2026-05-06 19:16 | 50.36797 | 11.00964 | 35028 ft | 452 kts | 284° |
| 2026-05-06 19:16 | 50.37841 | 10.96347 | 34604 ft | 447 kts | 284° |
| 2026-05-06 19:17 | 50.38871 | 10.91786 | 34170 ft | 442 kts | 283° |
| 2026-05-06 19:17 | 50.39887 | 10.87271 | 33730 ft | 437 kts | 283° |
| 2026-05-06 19:17 | 50.40889 | 10.82802 | 33237 ft | 432 kts | 283° |
| 2026-05-06 19:17 | 50.41877 | 10.78371 | 32745 ft | 428 kts | 283° |
| 2026-05-06 19:18 | 50.42843 | 10.73971 | 32254 ft | 426 kts | 282° |
| 2026-05-06 19:18 | 50.43660 | 10.69509 | 32027 ft | 427 kts | 278° |
| 2026-05-06 19:18 | 50.44334 | 10.64955 | 31875 ft | 430 kts | 277° |
| 2026-05-06 19:19 | 50.45652 | 10.55746 | 31788 ft | 434 kts | 278° |
| 2026-05-06 19:19 | 50.46362 | 10.51176 | 31388 ft | 440 kts | 281° |
| 2026-05-06 19:19 | 50.47415 | 10.46646 | 30900 ft | 442 kts | 289° |
| 2026-05-06 19:19 | 50.48723 | 10.42308 | 30454 ft | 439 kts | 291° |
| 2026-05-06 19:20 | 50.50025 | 10.37986 | 30000 ft | 436 kts | 290° |
| 2026-05-06 19:20 | 50.51257 | 10.33657 | 29505 ft | 433 kts | 289° |
| 2026-05-06 19:20 | 50.52471 | 10.29340 | 28980 ft | 431 kts | 290° |
| 2026-05-06 19:20 | 50.53703 | 10.25065 | 28504 ft | 428 kts | 291° |
| 2026-05-06 19:21 | 50.54950 | 10.20840 | 28026 ft | 424 kts | 291° |
| 2026-05-06 19:21 | 50.56203 | 10.16652 | 27526 ft | 422 kts | 292° |
| 2026-05-06 19:21 | 50.57449 | 10.12500 | 27031 ft | 418 kts | 292° |
| 2026-05-06 19:21 | 50.58683 | 10.08363 | 26458 ft | 417 kts | 292° |
| 2026-05-06 19:22 | 50.59903 | 10.04252 | 25815 ft | 413 kts | 292° |
| 2026-05-06 19:22 | 50.61095 | 10.00235 | 25190 ft | 408 kts | 292° |
| 2026-05-06 19:22 | 50.62289 | 9.96216 | 24578 ft | 404 kts | 292° |
| 2026-05-06 19:22 | 50.63471 | 9.92229 | 23976 ft | 400 kts | 292° |
| 2026-05-06 19:23 | 50.64639 | 9.88285 | 23394 ft | 396 kts | 292° |
| 2026-05-06 19:23 | 50.65797 | 9.84367 | 22707 ft | 392 kts | 292° |
| 2026-05-06 19:23 | 50.66941 | 9.80490 | 22051 ft | 387 kts | 293° |
| 2026-05-06 19:23 | 50.68076 | 9.76685 | 21374 ft | 380 kts | 293° |
| 2026-05-06 19:24 | 50.69184 | 9.72949 | 20735 ft | 374 kts | 292° |
| 2026-05-06 19:24 | 50.70263 | 9.69251 | 20100 ft | 369 kts | 292° |
| 2026-05-06 19:24 | 50.71325 | 9.65593 | 19492 ft | 366 kts | 292° |
| 2026-05-06 19:24 | 50.72393 | 9.61944 | 18872 ft | 364 kts | 293° |
| 2026-05-06 19:25 | 50.73496 | 9.58371 | 18271 ft | 361 kts | 294° |
| 2026-05-06 19:25 | 50.74602 | 9.54890 | 17637 ft | 358 kts | 294° |
| 2026-05-06 19:25 | 50.75702 | 9.51382 | 16979 ft | 355 kts | 294° |
| 2026-05-06 19:25 | 50.76784 | 9.47895 | 16322 ft | 352 kts | 294° |
| 2026-05-06 19:26 | 50.77861 | 9.44445 | 15677 ft | 349 kts | 294° |
| 2026-05-06 19:26 | 50.78939 | 9.41027 | 15037 ft | 346 kts | 294° |
| 2026-05-06 19:26 | 50.80014 | 9.37646 | 14509 ft | 342 kts | 294° |
| 2026-05-06 19:26 | 50.81073 | 9.34325 | 14134 ft | 337 kts | 294° |
| 2026-05-06 19:27 | 50.82121 | 9.31022 | 13788 ft | 336 kts | 294° |
| 2026-05-06 19:27 | 50.83166 | 9.27718 | 13403 ft | 335 kts | 294° |
| 2026-05-06 19:27 | 50.84203 | 9.24436 | 13077 ft | 332 kts | 294° |
| 2026-05-06 19:27 | 50.85236 | 9.21171 | 12918 ft | 335 kts | 294° |
| 2026-05-06 19:28 | 50.86275 | 9.17881 | 12862 ft | 341 kts | 294° |
| 2026-05-06 19:28 | 50.87336 | 9.14518 | 12839 ft | 342 kts | 294° |
| 2026-05-06 19:28 | 50.88402 | 9.11142 | 12830 ft | 343 kts | 294° |
| 2026-05-06 19:28 | 50.89467 | 9.07765 | 12824 ft | 342 kts | 294° |
| 2026-05-06 19:29 | 50.90530 | 9.04388 | 12827 ft | 342 kts | 293° |
| 2026-05-06 19:29 | 50.91392 | 9.00897 | 12818 ft | 340 kts | 284° |
| 2026-05-06 19:29 | 50.91970 | 8.97266 | 12827 ft | 339 kts | 280° |
| 2026-05-06 19:29 | 50.92415 | 8.93616 | 12825 ft | 339 kts | 278° |
| 2026-05-06 19:30 | 50.92805 | 8.89917 | 12825 ft | 339 kts | 277° |
| 2026-05-06 19:30 | 50.93168 | 8.86232 | 12830 ft | 339 kts | 277° |
| 2026-05-06 19:30 | 50.93512 | 8.82586 | 12830 ft | 339 kts | 276° |
| 2026-05-06 19:30 | 50.93824 | 8.78888 | 12831 ft | 339 kts | 275° |
| 2026-05-06 19:31 | 50.94099 | 8.75184 | 12834 ft | 338 kts | 274° |
| 2026-05-06 19:31 | 50.94351 | 8.71477 | 12830 ft | 338 kts | 274° |
| 2026-05-06 19:31 | 50.94831 | 8.64062 | 12835 ft | 338 kts | 274° |
| 2026-05-06 19:32 | 50.95065 | 8.60348 | 12811 ft | 339 kts | 274° |
| 2026-05-06 19:32 | 50.95300 | 8.56615 | 12467 ft | 340 kts | 274° |
| 2026-05-06 19:32 | 50.95534 | 8.52904 | 12064 ft | 336 kts | 274° |
| 2026-05-06 19:32 | 50.95766 | 8.49272 | 11691 ft | 335 kts | 274° |
| 2026-05-06 19:33 | 50.95998 | 8.45610 | 11321 ft | 332 kts | 274° |
| 2026-05-06 19:33 | 50.96214 | 8.41974 | 10927 ft | 329 kts | 274° |
| 2026-05-06 19:33 | 50.96429 | 8.38451 | 10536 ft | 313 kts | 274° |
| 2026-05-06 19:33 | 50.96641 | 8.35097 | 10176 ft | 298 kts | 274° |
| 2026-05-06 19:34 | 50.96704 | 8.31920 | 9960 ft | 279 kts | 260° |
| 2026-05-06 19:34 | 50.96146 | 8.29063 | 9899 ft | 270 kts | 244° |
| 2026-05-06 19:34 | 50.95296 | 8.26385 | 9958 ft | 272 kts | 244° |
| 2026-05-06 19:34 | 50.94596 | 8.23647 | 9885 ft | 263 kts | 250° |
| 2026-05-06 19:35 | 50.94082 | 8.20928 | 9870 ft | 255 kts | 252° |
| 2026-05-06 19:35 | 50.93547 | 8.18254 | 9870 ft | 254 kts | 249° |
| 2026-05-06 19:35 | 50.92911 | 8.15730 | 9871 ft | 244 kts | 245° |
| 2026-05-06 19:35 | 50.92205 | 8.13331 | 9793 ft | 238 kts | 242° |
| 2026-05-06 19:36 | 50.91474 | 8.11007 | 9815 ft | 236 kts | 241° |
| 2026-05-06 19:36 | 50.90721 | 8.08683 | 9838 ft | 239 kts | 242° |
| 2026-05-06 19:36 | 50.89954 | 8.06362 | 9915 ft | 237 kts | 240° |
| 2026-05-06 19:36 | 50.89173 | 8.04043 | 9868 ft | 241 kts | 241° |
| 2026-05-06 19:37 | 50.88410 | 8.01690 | 9770 ft | 241 kts | 242° |
| 2026-05-06 19:37 | 50.87643 | 7.99323 | 9463 ft | 243 kts | 244° |
| 2026-05-06 19:37 | 50.86854 | 7.96940 | 9229 ft | 246 kts | 244° |
| 2026-05-06 19:37 | 50.86328 | 7.95345 | 9056 ft | 247 kts | 244° |
| 2026-05-06 19:38 | 50.85288 | 7.92131 | 8696 ft | 248 kts | 244° |
| 2026-05-06 19:38 | 50.84490 | 7.89728 | 8451 ft | 246 kts | 244° |
| 2026-05-06 19:38 | 50.83688 | 7.87348 | 8184 ft | 245 kts | 243° |
| 2026-05-06 19:38 | 50.82872 | 7.84994 | 7924 ft | 244 kts | 243° |
| 2026-05-06 19:39 | 50.82072 | 7.82631 | 7685 ft | 242 kts | 244° |
| 2026-05-06 19:39 | 50.81297 | 7.80269 | 7401 ft | 242 kts | 245° |
| 2026-05-06 19:39 | 50.80796 | 7.77779 | 7123 ft | 236 kts | 263° |
| 2026-05-06 19:39 | 50.80687 | 7.75216 | 6974 ft | 233 kts | 271° |
| 2026-05-06 19:40 | 50.80690 | 7.72657 | 6919 ft | 233 kts | 272° |
| 2026-05-06 19:40 | 50.80740 | 7.70091 | 6894 ft | 234 kts | 272° |
| 2026-05-06 19:40 | 50.80803 | 7.67533 | 6910 ft | 235 kts | 274° |
| 2026-05-06 19:40 | 50.80862 | 7.64955 | 6872 ft | 234 kts | 274° |
| 2026-05-06 19:41 | 50.80918 | 7.62388 | 6871 ft | 234 kts | 273° |
| 2026-05-06 19:41 | 50.80972 | 7.59815 | 6868 ft | 234 kts | 273° |
| 2026-05-06 19:41 | 50.81026 | 7.57279 | 6905 ft | 234 kts | 274° |
| 2026-05-06 19:41 | 50.81083 | 7.54692 | 6869 ft | 237 kts | 273° |
| 2026-05-06 19:42 | 50.81152 | 7.52109 | 6896 ft | 235 kts | 274° |
| 2026-05-06 19:42 | 50.81215 | 7.49519 | 6879 ft | 236 kts | 274° |
| 2026-05-06 19:42 | 50.81251 | 7.46926 | 6872 ft | 236 kts | 274° |
| 2026-05-06 19:42 | 50.81237 | 7.44332 | 6871 ft | 237 kts | 264° |
| 2026-05-06 19:43 | 50.80611 | 7.41922 | 6800 ft | 241 kts | 232° |
| 2026-05-06 19:43 | 50.79288 | 7.40347 | 6820 ft | 241 kts | 201° |
| 2026-05-06 19:43 | 50.77621 | 7.40055 | 6867 ft | 245 kts | 169° |
| 2026-05-06 19:43 | 50.76033 | 7.40982 | 6956 ft | 244 kts | 151° |
| 2026-05-06 19:44 | 50.74545 | 7.42378 | 6902 ft | 253 kts | 146° |
| 2026-05-06 19:44 | 50.73100 | 7.43913 | 6617 ft | 254 kts | 144° |
| 2026-05-06 19:44 | 50.71665 | 7.45506 | 6264 ft | 251 kts | 143° |
| 2026-05-06 19:44 | 50.70237 | 7.47065 | 5888 ft | 248 kts | 152° |
| 2026-05-06 19:45 | 50.68584 | 7.47744 | 5420 ft | 248 kts | 183° |
| 2026-05-06 19:45 | 50.67008 | 7.47038 | 5287 ft | 224 kts | 213° |
| 2026-05-06 19:45 | 50.66003 | 7.45330 | 4902 ft | 209 kts | 246° |
| 2026-05-06 19:45 | 50.65777 | 7.43118 | 4307 ft | 205 kts | 277° |
| 2026-05-06 19:46 | 50.66046 | 7.40949 | 3799 ft | 200 kts | 296° |
| 2026-05-06 19:46 | 50.66955 | 7.39338 | 3281 ft | 196 kts | 328° |
| 2026-05-06 19:46 | 50.68119 | 7.38496 | 3266 ft | 175 kts | 340° |
| 2026-05-06 19:46 | 50.69279 | 7.37872 | 3108 ft | 178 kts | 342° |
| 2026-05-06 19:47 | 50.70453 | 7.37284 | 2984 ft | 176 kts | 343° |
| 2026-05-06 19:47 | 50.71554 | 7.36532 | 2950 ft | 176 kts | 330° |
| 2026-05-06 19:47 | 50.72531 | 7.35342 | 2973 ft | 178 kts | 320° |
| 2026-05-06 19:47 | 50.73441 | 7.34018 | 2977 ft | 178 kts | 319° |
| 2026-05-06 19:48 | 50.74340 | 7.32705 | 3046 ft | 178 kts | 319° |
| 2026-05-06 19:48 | 50.75263 | 7.31371 | 3010 ft | 181 kts | 319° |
| 2026-05-06 19:48 | 50.76198 | 7.30024 | 2835 ft | 182 kts | 319° |
| 2026-05-06 19:48 | 50.77127 | 7.28685 | 2596 ft | 180 kts | 319° |
| 2026-05-06 19:49 | 50.78042 | 7.27365 | 2375 ft | 176 kts | 319° |
| 2026-05-06 19:49 | 50.78944 | 7.26063 | 2141 ft | 176 kts | 319° |
| 2026-05-06 19:49 | 50.79849 | 7.24757 | 1901 ft | 176 kts | 319° |
| 2026-05-06 19:49 | 50.80727 | 7.23489 | 1738 ft | 164 kts | 319° |
| 2026-05-06 19:50 | 50.81274 | 7.22697 | 1499 ft | 160 kts | 319° |
| 2026-05-06 19:50 | 50.82371 | 7.21113 | 1177 ft | 161 kts | 318° |
| 2026-05-06 19:50 | 50.83200 | 7.19913 | 962 ft | 161 kts | 317° |
| 2026-05-06 19:50 | 50.84034 | 7.18711 | 757 ft | 164 kts | 317° |
| 2026-05-06 19:51 | 50.84882 | 7.17481 | 543 ft | 166 kts | 318° |
| 2026-05-06 19:51 | 50.85742 | 7.16250 | 358 ft | 166 kts | 318° |
| 2026-05-06 19:51 | 50.86286 | 7.15456 | 310 ft | 153 kts | 317° |
| 2026-05-06 19:51 | 50.86981 | 7.14440 | 261 ft | 112 kts | 317° |
| 2026-05-06 19:52 | 50.87301 | 7.13831 | 246 ft | 32 kts | 283° |
| 2026-05-06 19:52 | 50.87329 | 7.13626 | 241 ft | 4 kts | 279° |
| 2026-05-06 19:52 | 50.87330 | 7.13614 | 241 ft | 0 kts | 281° |
| 2026-05-06 19:53 | 50.87331 | 7.13611 | 241 ft | 2 kts | 281° |
| 2026-05-06 19:53 | 50.87339 | 7.13551 | 239 ft | 9 kts | 283° |
| 2026-05-06 19:53 | 50.87374 | 7.13443 | 237 ft | 10 kts | 303° |
| 2026-05-06 19:53 | 50.87405 | 7.13383 | 237 ft | 8 kts | 311° |
| 2026-05-06 19:54 | 50.87454 | 7.13307 | 238 ft | 12 kts | 317° |
| 2026-05-06 19:54 | 50.87526 | 7.13201 | 238 ft | 15 kts | 317° |
| 2026-05-06 19:54 | 50.87608 | 7.13085 | 238 ft | 16 kts | 319° |
| 2026-05-06 19:54 | 50.87669 | 7.12999 | 238 ft | 3 kts | 318° |
| 2026-05-06 19:55 | 50.87699 | 7.12958 | 238 ft | 9 kts | 318° |
| 2026-05-06 19:55 | 50.87740 | 7.12899 | 238 ft | 6 kts | 317° |
| 2026-05-06 19:55 | 50.87771 | 7.12853 | 237 ft | 8 kts | 316° |
| 2026-05-06 19:55 | 50.87790 | 7.12787 | 237 ft | 8 kts | 270° |
| 2026-05-06 19:56 | 50.87778 | 7.12692 | 237 ft | 10 kts | 256° |
| 2026-05-06 19:56 | 50.87760 | 7.12594 | 237 ft | 8 kts | 252° |
| 2026-05-06 19:56 | 50.87731 | 7.12536 | 237 ft | 9 kts | 212° |
| 2026-05-06 19:56 | 50.87678 | 7.12497 | 237 ft | 6 kts | 197° |
| 2026-05-06 19:57 | 50.87624 | 7.12469 | 237 ft | 7 kts | 199° |
| 2026-05-06 19:57 | 50.87592 | 7.12453 | 237 ft | 5 kts | 197° |
| 2026-05-06 19:57 | 50.87551 | 7.12401 | 237 ft | 10 kts | 248° |
| 2026-05-06 19:57 | 50.87572 | 7.12286 | 237 ft | 10 kts | 296° |
| 2026-05-06 19:58 | 50.87574 | 7.12231 | 237 ft | 3 kts | 225° |
| 2026-05-06 19:58 | 50.87546 | 7.12209 | 237 ft | 1 kts | 205° |
| 2026-05-06 19:58 | 50.87539 | 7.12205 | 237 ft | 4 kts | 203° |
| 2026-05-06 19:58 | 50.87523 | 7.12192 | 237 ft | 0 kts | 207° |